Time;durP1;ratioP1;P1;durP2;ratioP2;P2;SDS_P1;SDS_P2;PMS_P1;PMS_P2;Temp;Humidity;BMP_temperature;BMP_pressure;BME280_temperature;BME280_humidity;BME280_pressure;Samples;Min_cycle;Max_cycle;Signal;HPM_P1;HPM_P2
2021/12/17 00:04:52;;;;;;;6.60;3.15;;;;;;;19.75;55.09;98389.66;10366537;28;20080;-22
2021/12/17 00:09:55;;;;;;;4.70;2.70;;;;;;;19.55;55.11;98359.56;10371419;28;20037;-23
2021/12/17 00:14:57;;;;;;;6.10;3.58;;;;;;;19.77;54.99;98387.16;10359993;28;20426;-22
2021/12/17 00:51:56;;;;;;;4.45;3.08;;;;;;;19.75;54.89;98359.16;10357587;28;20050;-22
2021/12/17 00:57:01;;;;;;;6.72;3.03;;;;;;;19.74;55.04;98360.00;10365170;28;20062;-23
2021/12/17 01:02:07;;;;;;;4.38;2.75;;;;;;;19.80;54.42;98365.22;10366011;28;20089;-23
2021/12/17 01:07:08;;;;;;;4.82;2.70;;;;;;;19.80;54.67;98366.88;10364205;28;20030;-22
2021/12/17 01:12:09;;;;;;;5.20;3.00;;;;;;;19.77;54.43;98364.28;10363411;28;20030;-23
2021/12/17 01:17:33;;;;;;;3.92;2.50;;;;;;;19.71;54.88;98361.59;10359683;28;20033;-22
2021/12/17 01:23:09;;;;;;;5.05;2.85;;;;;;;19.72;54.87;98346.41;10364224;28;20072;-22
2021/12/17 01:45:06;;;;;;;4.13;2.85;;;;;;;19.70;54.76;98342.09;10363368;28;20037;-23
2021/12/17 02:00:49;;;;;;;5.18;2.10;;;;;;;19.69;54.64;98332.78;10362762;28;20410;-23
2021/12/17 02:05:50;;;;;;;5.35;2.67;;;;;;;19.67;54.98;98334.44;10361393;28;20117;-23
2021/12/17 02:11:58;;;;;;;4.40;2.75;;;;;;;19.70;54.81;98337.91;10367769;28;20044;-23
2021/12/17 02:22:31;;;;;;;7.05;2.85;;;;;;;19.63;55.11;98333.50;10358123;28;20502;-22
2021/12/17 02:32:19;;;;;;;3.88;2.20;;;;;;;19.70;54.81;98316.69;10362085;28;20030;-22
2021/12/17 02:37:24;;;;;;;2.72;1.90;;;;;;;19.71;54.70;98321.81;10362007;28;20049;-23
2021/12/17 02:48:08;;;;;;;4.05;2.22;;;;;;;19.72;54.64;98307.41;10366910;28;20034;-23
2021/12/17 02:53:09;;;;;;;2.80;1.98;;;;;;;19.70;54.68;98293.81;10356459;28;20108;-23
2021/12/17 02:58:10;;;;;;;4.95;2.33;;;;;;;19.69;54.79;98292.94;10369321;28;20496;-23
2021/12/17 03:03:12;;;;;;;2.72;1.92;;;;;;;19.70;54.71;98278.56;10370645;28;20041;-22
2021/12/17 03:08:15;;;;;;;3.20;1.85;;;;;;;19.71;54.66;98275.19;10368998;28;20030;-23
2021/12/17 03:13:17;;;;;;;2.38;2.05;;;;;;;19.70;54.78;98260.78;10370501;28;20502;-23
2021/12/17 03:23:40;;;;;;;2.65;1.77;;;;;;;19.73;53.91;98266.78;10367963;28;20037;-22
2021/12/17 03:28:46;;;;;;;3.97;1.80;;;;;;;19.72;54.58;98257.47;10368295;28;20623;-23
2021/12/17 03:33:50;;;;;;;2.25;1.70;;;;;;;19.72;54.68;98262.53;10367206;28;20116;-23
2021/12/17 03:38:51;;;;;;;5.18;1.60;;;;;;;19.70;54.68;98273.50;10369545;28;20071;-23
2021/12/17 03:43:54;;;;;;;3.10;2.03;;;;;;;19.64;54.58;98273.38;10368365;28;20030;-22
2021/12/17 03:48:56;;;;;;;4.13;2.13;;;;;;;19.72;54.33;98303.19;10365010;28;20037;-22
2021/12/17 03:53:59;;;;;;;2.60;1.75;;;;;;;19.72;54.66;98315.03;10360231;28;20030;-22
2021/12/17 03:59:10;;;;;;;6.00;2.05;;;;;;;19.66;54.83;98307.31;10366446;28;20542;-23
2021/12/17 04:04:11;;;;;;;4.40;1.88;;;;;;;19.70;54.68;98314.16;10365241;28;20045;-22
2021/12/17 04:09:13;;;;;;;3.63;2.20;;;;;;;19.70;54.92;98306.53;10369649;28;20083;-23
2021/12/17 04:14:43;;;;;;;3.53;2.08;;;;;;;19.63;55.02;98276.72;10358669;28;20036;-22
2021/12/17 04:19:44;;;;;;;5.80;2.67;;;;;;;19.67;54.84;98270.91;10365757;28;20037;-22
2021/12/17 04:24:44;;;;;;;3.88;1.83;;;;;;;19.66;54.94;98276.81;10367829;28;20478;-23
2021/12/17 04:29:45;;;;;;;2.85;2.00;;;;;;;19.68;54.75;98270.06;10362244;28;20117;-23
2021/12/17 04:34:47;;;;;;;3.42;2.58;;;;;;;19.68;54.83;98270.06;10365189;28;20041;-22
2021/12/17 04:39:49;;;;;;;5.20;2.20;;;;;;;19.67;54.74;98279.38;10366486;28;20044;-22
2021/12/17 04:44:54;;;;;;;3.42;2.00;;;;;;;19.70;54.37;98273.50;10362323;28;20021;-23
2021/12/17 05:00:34;;;;;;;3.83;1.80;;;;;;;19.79;54.37;98284.72;10397556;28;20509;-22
2021/12/17 05:05:56;;;;;;;6.15;1.92;;;;;;;19.79;54.69;98294.00;10373301;28;20052;-22
2021/12/17 05:11:25;;;;;;;3.13;2.03;;;;;;;19.76;54.60;98293.97;10367819;28;20034;-22
2021/12/17 05:21:46;;;;;;;4.32;3.20;;;;;;;19.73;54.60;98299.81;10362945;28;20037;-22
2021/12/17 05:26:47;;;;;;;4.75;1.80;;;;;;;19.75;54.51;98304.94;10361806;28;20026;-23
2021/12/17 05:31:47;;;;;;;3.03;1.60;;;;;;;19.76;54.55;98309.22;10360921;28;20029;-23
2021/12/17 05:36:48;;;;;;;2.72;1.63;;;;;;;19.73;54.65;98311.66;10352950;28;20056;-23
2021/12/17 05:41:53;;;;;;;3.17;1.80;;;;;;;19.74;54.33;98323.53;10362084;28;20026;-23
2021/12/17 05:47:10;;;;;;;3.25;1.80;;;;;;;19.76;52.30;98334.63;10364665;28;20034;-23
2021/12/17 05:52:10;;;;;;;1.93;1.50;;;;;;;19.74;51.51;98336.25;10351093;28;20092;-23
2021/12/17 05:57:11;;;;;;;2.83;1.55;;;;;;;19.68;50.12;98351.38;10363382;28;20029;-23
2021/12/17 06:02:16;;;;;;;7.53;1.60;;;;;;;19.67;50.72;98347.97;10362603;28;20042;-23
2021/12/17 06:07:27;;;;;;;10.55;1.77;;;;;;;19.64;50.01;98349.59;10353974;28;20018;-23
2021/12/17 06:12:29;;;;;;;3.45;1.35;;;;;;;19.68;51.68;98361.56;10366562;28;20037;-23
2021/12/17 06:17:31;;;;;;;2.63;1.52;;;;;;;19.71;52.06;98356.53;10361900;28;20180;-23
2021/12/17 06:22:31;;;;;;;5.85;1.40;;;;;;;19.75;52.77;98356.63;10353487;28;20071;-24
2021/12/17 06:27:36;;;;;;;3.88;2.00;;;;;;;19.74;52.90;98362.53;10363227;28;20043;-23
2021/12/17 06:32:37;;;;;;;2.97;1.27;;;;;;;19.76;52.93;98365.13;10371830;28;20406;-23
2021/12/17 06:37:40;;;;;;;2.90;1.23;;;;;;;19.76;53.44;98370.19;10370302;28;20037;-23
2021/12/17 06:42:44;;;;;;;2.85;1.50;;;;;;;19.76;53.66;98365.13;10369993;28;20037;-23
2021/12/17 06:47:53;;;;;;;1.98;1.30;;;;;;;19.76;53.85;98365.13;10374371;28;20201;-23
2021/12/17 07:20:57;;;;;;;3.00;1.52;;;;;;;19.69;54.64;98396.31;10368583;28;20120;-24
2021/12/17 07:36:56;;;;;;;5.13;1.70;;;;;;;19.64;54.37;98406.38;10336895;28;20042;-23
2021/12/17 07:42:00;;;;;;;4.18;1.98;;;;;;;19.64;54.27;98408.03;10368292;28;20080;-23
2021/12/17 07:47:09;;;;;;;6.60;2.05;;;;;;;19.63;54.40;98413.94;10362362;28;20550;-23
2021/12/17 07:52:09;;;;;;;5.30;1.60;;;;;;;19.56;54.48;98401.94;10354543;28;20030;-23
2021/12/17 07:57:11;;;;;;;8.82;3.22;;;;;;;19.62;54.66;98422.41;10367105;28;20796;-23
2021/12/17 08:02:13;;;;;;;8.75;2.00;;;;;;;19.65;54.74;98407.22;10364099;28;20039;-24
2021/12/17 08:07:19;;;;;;;;;;;;;;;19.65;54.74;98413.16;10367264;28;20022;-23
2021/12/17 08:12:20;;;;;;;7.15;1.75;;;;;;;19.65;54.48;98414.84;10368027;28;19936;-23
2021/12/17 08:28:09;;;;;;;2.60;1.58;;;;;;;19.65;54.61;98414.84;10367071;28;20045;-24
2021/12/17 08:33:18;;;;;;;3.17;1.85;;;;;;;19.67;54.66;98416.59;10365630;28;20510;-23
2021/12/17 08:38:19;;;;;;;3.23;1.97;;;;;;;19.66;54.62;98421.66;10365858;28;20108;-23
2021/12/17 08:43:21;;;;;;;5.82;2.33;;;;;;;19.66;54.69;98419.97;10364701;28;20034;-23
2021/12/17 08:48:25;;;;;;;5.07;2.22;;;;;;;19.64;53.87;98429.25;10364725;28;20114;-24
2021/12/17 08:53:45;;;;;;;3.65;2.33;;;;;;;19.70;54.08;98436.13;10354827;28;20038;-22
2021/12/17 08:58:47;;;;;;;6.50;2.80;;;;;;;19.73;54.10;98446.38;10364115;28;20030;-23
2021/12/17 09:03:47;;;;;;;3.80;1.80;;;;;;;19.70;54.19;98446.31;10360604;28;20030;-23
2021/12/17 09:09:07;;;;;;;4.82;1.63;;;;;;;19.67;54.10;98464.03;10368425;28;20421;-23
2021/12/17 09:14:08;;;;;;;4.72;2.33;;;;;;;19.68;54.37;98469.13;10363375;28;20030;-23
2021/12/17 09:19:26;;;;;;;4.85;2.30;;;;;;;19.64;54.40;98467.34;10359882;28;20041;-23
2021/12/17 09:24:40;;;;;;;3.65;2.63;;;;;;;19.69;54.36;98482.72;10460136;28;20951;-21
2021/12/17 09:29:52;;;;;;;2.30;2.10;;;;;;;19.66;54.10;98485.19;10438101;28;20037;-24
2021/12/17 09:34:52;;;;;;;5.63;2.20;;;;;;;19.63;54.54;98500.34;10433650;28;20531;-23
2021/12/17 09:39:53;;;;;;;7.07;3.27;;;;;;;19.67;54.52;98502.16;10440820;28;20025;-23
2021/12/17 09:44:53;;;;;;;4.23;2.73;;;;;;;19.71;54.41;98498.84;10436344;28;20056;-23
2021/12/17 09:49:55;;;;;;;9.00;3.13;;;;;;;19.72;54.40;98498.00;10435690;28;20302;-23
2021/12/17 09:54:57;;;;;;;5.65;3.10;;;;;;;19.68;54.36;98488.63;10432141;28;20033;-23
2021/12/17 09:59:57;;;;;;;6.28;2.85;;;;;;;19.67;54.52;98497.06;10439547;28;20155;-24
2021/12/17 10:04:58;;;;;;;7.70;4.17;;;;;;;19.68;54.59;98488.63;10434269;28;20039;-23
2021/12/17 10:10:01;;;;;;;5.53;3.50;;;;;;;19.66;54.68;98488.56;10440069;28;20381;-23
2021/12/17 10:15:08;;;;;;;5.07;3.30;;;;;;;19.68;54.29;98484.38;10436646;28;20029;-23
2021/12/17 10:20:09;;;;;;;9.52;3.78;;;;;;;19.69;54.67;98480.16;10434130;28;20033;-23
2021/12/17 10:25:10;;;;;;;9.75;3.65;;;;;;;19.69;54.48;98470.00;10439355;28;20049;-23
2021/12/17 10:30:19;;;;;;;7.40;3.75;;;;;;;19.69;54.85;98464.91;10436005;28;20049;-24
2021/12/17 10:35:21;;;;;;;9.02;3.75;;;;;;;19.73;54.55;98461.59;10406778;28;20689;-23
2021/12/17 10:40:23;;;;;;;9.15;4.32;;;;;;;19.70;54.56;98453.94;10405076;28;20030;-23
2021/12/17 10:45:26;;;;;;;7.75;4.95;;;;;;;19.69;52.85;98442.88;10409836;28;20049;-23
2021/12/17 10:50:28;;;;;;;13.05;4.90;;;;;;;19.69;54.41;98436.97;10405859;28;20523;-23
2021/12/17 10:55:28;;;;;;;12.20;5.57;;;;;;;19.73;54.39;98446.38;10403891;28;20041;-23
2021/12/17 11:00:28;;;;;;;13.83;6.33;;;;;;;19.58;50.28;98431.63;10407565;28;20448;-23
2021/12/17 11:05:33;;;;;;;8.10;5.03;;;;;;;19.67;53.68;98425.91;10407048;28;20400;-23
2021/12/17 11:10:35;;;;;;;6.15;5.03;;;;;;;19.63;54.33;98407.19;10410091;28;20079;-24
2021/12/17 11:15:35;;;;;;;11.20;5.85;;;;;;;19.73;54.33;98403.16;10409571;28;20045;-23
2021/12/17 11:20:39;;;;;;;8.10;4.55;;;;;;;19.81;54.39;98410.13;10407958;28;20459;-23
2021/12/17 11:25:47;;;;;;;11.77;4.10;;;;;;;19.87;53.51;98396.69;10409466;28;20057;-23
2021/12/17 11:30:49;;;;;;;8.43;4.50;;;;;;;19.88;54.06;98396.75;10401891;28;20152;-22
2021/12/17 11:35:50;;;;;;;5.93;4.28;;;;;;;19.97;53.47;98396.06;10401472;28;20116;-23
2021/12/17 11:41:13;;;;;;;12.20;5.18;;;;;;;20.05;53.58;98394.56;10409203;28;20036;-23
2021/12/17 11:46:15;;;;;;;6.32;4.20;;;;;;;20.04;53.22;98398.81;10399432;28;20483;-23
2021/12/17 11:51:17;;;;;;;11.02;4.32;;;;;;;20.00;53.19;98398.69;10404005;28;20374;-23
2021/12/17 11:56:40;;;;;;;8.70;4.47;;;;;;;19.96;53.52;98409.59;10399341;28;20037;-23
2021/12/17 12:01:48;;;;;;;10.25;4.72;;;;;;;19.89;53.43;98402.66;10404205;28;20106;-23
2021/12/17 12:07:05;;;;;;;8.75;4.45;;;;;;;19.93;53.24;98391.75;10405464;28;20044;-23
2021/12/17 12:12:10;;;;;;;6.55;4.60;;;;;;;19.93;53.39;98394.28;10405212;28;20029;-24
2021/12/17 12:17:10;;;;;;;6.70;3.90;;;;;;;19.92;53.39;98390.03;10406362;28;20038;-23
2021/12/17 12:22:12;;;;;;;8.13;5.17;;;;;;;19.91;51.77;98395.94;10406278;28;20034;-25
2021/12/17 12:27:43;;;;;;;9.48;6.15;;;;;;;19.75;49.92;98399.00;10406187;28;20318;-23
2021/12/17 12:33:04;;;;;;;8.02;5.35;;;;;;;19.77;52.30;98399.88;10404523;28;20526;-22
2021/12/17 12:38:22;;;;;;;7.65;5.43;;;;;;;19.83;52.29;98402.56;10399332;28;20036;-23
2021/12/17 12:43:26;;;;;;;9.15;4.90;;;;;;;19.83;52.62;98408.47;10404742;28;20045;-23
2021/12/17 12:48:33;;;;;;;8.55;5.40;;;;;;;19.84;52.94;98410.19;10406529;28;20049;-23
2021/12/17 12:53:33;;;;;;;9.38;4.47;;;;;;;19.77;53.08;98397.34;10392954;28;20521;-23
2021/12/17 12:58:37;;;;;;;5.83;4.77;;;;;;;19.79;53.08;98410.91;10404330;28;20041;-23
2021/12/17 13:03:38;;;;;;;10.15;5.45;;;;;;;19.71;53.25;98413.31;10403592;28;20379;-24
2021/12/17 13:08:38;;;;;;;7.35;5.20;;;;;;;19.76;53.23;98421.03;10405805;28;20040;-23
2021/12/17 13:13:57;;;;;;;8.07;5.27;;;;;;;19.75;53.34;98416.78;10406436;28;20032;-23
2021/12/17 13:24:20;;;;;;;13.40;8.07;;;;;;;19.66;55.06;98398.78;10405101;28;20036;-23
2021/12/17 13:29:23;;;;;;;14.93;8.52;;;;;;;19.63;55.57;98406.31;10406470;28;20034;-23
2021/12/17 13:34:48;;;;;;;17.95;10.10;;;;;;;19.58;56.04;98388.44;10407652;28;20044;-23
2021/12/17 13:39:50;;;;;;;18.73;11.00;;;;;;;19.73;55.46;98405.69;10400790;28;20033;-23
2021/12/17 13:44:56;;;;;;;18.80;12.43;;;;;;;19.73;55.51;98401.50;10401464;28;20037;-24
2021/12/17 13:50:10;;;;;;;10.90;7.40;;;;;;;19.62;53.92;98394.44;10400127;28;20061;-23
2021/12/17 13:55:13;;;;;;;16.95;11.52;;;;;;;19.69;55.26;98388.69;10406770;28;20065;-23
2021/12/17 14:00:17;;;;;;;15.50;9.85;;;;;;;19.88;54.96;98393.31;10405461;28;20029;-24
2021/12/17 14:05:28;;;;;;;16.23;10.70;;;;;;;19.87;54.82;98378.91;10404735;28;20047;-23
2021/12/17 14:10:30;;;;;;;11.90;9.43;;;;;;;20.01;54.55;98393.59;10406442;28;20088;-23
2021/12/17 14:15:34;;;;;;;16.52;10.40;;;;;;;20.14;54.54;98399.81;10415075;28;20632;-23
2021/12/17 14:20:41;;;;;;;14.02;11.23;;;;;;;20.19;54.58;98408.41;10404738;28;20041;-22
2021/12/17 14:25:48;;;;;;;15.80;10.77;;;;;;;20.22;54.35;98411.00;10413307;28;20141;-23
2021/12/17 14:31:02;;;;;;;13.50;10.88;;;;;;;20.25;54.43;98411.09;10413115;28;20035;-23
2021/12/17 14:36:16;;;;;;;16.35;10.13;;;;;;;20.41;54.21;98413.94;10408378;28;20045;-23
2021/12/17 14:41:23;;;;;;;16.90;11.13;;;;;;;20.46;54.16;98405.56;10411317;28;20061;-22
2021/12/17 14:46:26;;;;;;;20.15;11.93;;;;;;;20.45;54.25;98401.31;10404723;28;20049;-22
2021/12/17 14:57:25;;;;;;;16.95;11.57;;;;;;;20.37;54.47;98390.97;10405088;28;20083;-22
2021/12/17 15:02:44;;;;;;;18.35;11.63;;;;;;;20.34;54.20;98383.28;10409919;28;20552;-23
2021/12/17 15:07:45;;;;;;;19.95;13.20;;;;;;;20.40;54.40;98395.28;10408481;28;20488;-22
2021/12/17 15:12:46;;;;;;;14.98;10.57;;;;;;;20.39;53.12;98395.25;10406020;28;20109;-23
2021/12/17 15:17:50;;;;;;;20.10;11.73;;;;;;;20.37;54.06;98390.97;10407589;28;20442;-23
2021/12/17 15:22:52;;;;;;;22.77;13.02;;;;;;;20.26;54.60;98379.75;10408071;28;20602;-23
2021/12/17 15:27:53;;;;;;;20.20;13.43;;;;;;;20.13;54.76;98383.72;10408286;28;20040;-23
2021/12/17 15:32:54;;;;;;;15.40;11.65;;;;;;;20.15;54.26;98388.81;10409715;28;20105;-22
2021/12/17 15:37:56;;;;;;;18.02;13.43;;;;;;;20.02;55.58;98380.06;10404231;28;20110;-23
2021/12/17 15:43:02;;;;;;;15.73;11.35;;;;;;;19.91;54.46;98379.00;10407626;28;20161;-22
2021/12/17 15:48:04;;;;;;;18.98;11.95;;;;;;;20.10;54.68;98400.59;10405749;28;20048;-23
2021/12/17 15:53:05;;;;;;;21.15;12.02;;;;;;;20.08;54.74;98409.91;10403086;28;20065;-23
2021/12/17 15:58:07;;;;;;;14.70;11.38;;;;;;;20.11;54.65;98409.94;10407366;28;20124;-23
2021/12/17 16:03:09;;;;;;;19.02;12.25;;;;;;;19.99;54.29;98404.56;10406858;28;20483;-23
2021/12/17 16:08:10;;;;;;;16.35;10.85;;;;;;;20.05;54.17;98402.19;10405928;28;20076;-23
2021/12/17 16:18:55;;;;;;;14.98;11.75;;;;;;;20.07;53.42;98415.78;10404663;28;20078;-23
2021/12/17 16:23:53;;;;;;;14.90;11.27;;;;;;;20.06;53.35;98421.69;10405832;28;20116;-23
2021/12/17 16:28:53;;;;;;;16.80;11.00;;;;;;;20.04;53.17;98418.25;10401252;28;20036;-23
2021/12/17 16:33:58;;;;;;;13.73;10.30;;;;;;;20.05;52.94;98427.63;10399618;28;20045;-23
2021/12/17 16:39:00;;;;;;;12.15;9.75;;;;;;;20.05;53.60;98412.34;10406333;28;20086;-23
2021/12/17 16:44:07;;;;;;;15.27;9.05;;;;;;;19.92;50.25;98402.75;10401726;28;20036;-23
2021/12/17 16:49:10;;;;;;;22.25;9.00;;;;;;;18.96;46.94;98421.63;10396489;28;20191;-23
2021/12/17 16:54:10;;;;;;;9.90;7.75;;;;;;;18.55;47.96;98407.03;10404107;28;20112;-23
2021/12/17 16:59:11;;;;;;;12.80;7.75;;;;;;;18.48;45.21;98424.56;10402960;28;20040;-22
2021/12/17 17:04:11;;;;;;;11.83;8.70;;;;;;;18.25;43.53;98410.38;10403819;28;20392;-22
2021/12/17 17:09:12;;;;;;;11.68;7.90;;;;;;;18.36;44.62;98409.03;10406371;28;20338;-24
2021/12/17 17:14:12;;;;;;;10.15;5.97;;;;;;;18.83;45.31;98408.59;10397658;28;20044;-22
2021/12/17 17:19:13;;;;;;;13.52;6.85;;;;;;;19.12;48.25;98405.09;10400244;28;20046;-22
2021/12/17 17:24:16;;;;;;;10.57;6.70;;;;;;;19.35;49.09;98396.38;10405384;28;20156;-23
2021/12/17 17:29:17;;;;;;;7.85;6.57;;;;;;;19.44;49.81;98402.50;10403511;28;20292;-22
2021/12/17 17:34:18;;;;;;;10.50;7.03;;;;;;;19.48;50.60;98403.44;10404578;28;20030;-22
2021/12/17 17:39:18;;;;;;;10.40;7.75;;;;;;;19.52;50.97;98405.25;10406178;28;20041;-22
2021/12/17 17:44:19;;;;;;;9.50;7.30;;;;;;;19.58;51.14;98400.31;10405931;28;20533;-22
2021/12/17 17:49:19;;;;;;;10.93;7.22;;;;;;;19.61;51.02;98387.66;10402414;28;20040;-22
2021/12/17 17:54:19;;;;;;;11.13;6.90;;;;;;;19.63;51.32;98386.00;10407496;28;20112;-23
2021/12/17 17:59:20;;;;;;;16.03;6.93;;;;;;;19.69;51.27;98393.75;10406125;28;20569;-23
2021/12/17 18:04:20;;;;;;;7.93;6.60;;;;;;;19.71;51.33;98390.44;10408318;28;20037;-22
2021/12/17 18:09:20;;;;;;;8.37;7.20;;;;;;;19.73;51.67;98388.78;10408551;28;20055;-22
2021/12/17 18:14:21;;;;;;;10.30;6.82;;;;;;;19.69;52.02;98393.75;10412066;28;20284;-23
2021/12/17 18:19:21;;;;;;;9.43;7.53;;;;;;;19.61;53.11;98374.94;10406303;28;20046;-22
2021/12/17 18:24:21;;;;;;;13.23;7.57;;;;;;;19.67;53.68;98378.47;10409796;28;20037;-22
2021/12/17 18:29:22;;;;;;;9.60;7.53;;;;;;;19.72;53.05;98388.72;10409329;28;20040;-23
2021/12/17 18:34:22;;;;;;;10.87;7.00;;;;;;;19.72;52.93;98398.91;10412748;28;20280;-23
2021/12/17 18:39:23;;;;;;;12.17;7.50;;;;;;;19.68;53.11;98407.31;10412828;28;20059;-23
2021/12/17 18:44:23;;;;;;;9.52;7.03;;;;;;;19.67;53.06;98405.59;10408404;28;20034;-23
2021/12/17 18:49:26;;;;;;;9.70;6.73;;;;;;;19.66;53.35;98414.03;10408630;28;20037;-23
2021/12/17 18:54:26;;;;;;;11.18;7.93;;;;;;;19.66;53.17;98419.13;10411809;28;20033;-23
2021/12/17 18:59:27;;;;;;;8.97;6.60;;;;;;;19.65;53.23;98417.38;10407743;28;20104;-23
2021/12/17 19:04:27;;;;;;;9.82;6.55;;;;;;;19.65;53.26;98437.72;10411944;28;20311;-23
2021/12/17 19:09:27;;;;;;;9.65;7.15;;;;;;;19.74;52.80;98445.53;10412255;28;20046;-23
2021/12/17 19:14:30;;;;;;;7.90;6.77;;;;;;;19.78;52.82;98444.78;10406698;28;20676;-23
2021/12/17 19:19:46;;;;;;;7.65;6.75;;;;;;;19.78;52.89;98439.72;10405188;28;20300;-23
2021/12/17 19:24:46;;;;;;;10.83;6.20;;;;;;;19.77;52.93;98453.25;10408175;28;20026;-22
2021/12/17 19:29:46;;;;;;;9.07;7.30;;;;;;;19.73;53.01;98442.16;10407793;28;20044;-23
2021/12/17 19:34:47;;;;;;;8.20;6.53;;;;;;;19.71;53.20;98442.94;10405165;28;20029;-23
2021/12/17 19:39:51;;;;;;;7.50;5.90;;;;;;;19.69;53.22;98444.59;10411820;28;20367;-23
2021/12/17 19:44:53;;;;;;;9.90;6.68;;;;;;;19.73;53.11;98456.53;10408944;28;20029;-23
2021/12/17 19:49:53;;;;;;;8.77;7.05;;;;;;;19.67;53.58;98451.31;10404418;28;20806;-23
2021/12/17 19:54:54;;;;;;;14.07;7.10;;;;;;;19.67;53.94;98451.31;10405788;28;20061;-24
2021/12/17 19:59:56;;;;;;;10.37;6.30;;;;;;;19.60;54.33;98429.97;10404397;28;20037;-25
2021/12/17 20:04:57;;;;;;;9.68;6.80;;;;;;;19.68;54.68;98433.56;10402383;28;20033;-23
2021/12/17 20:09:57;;;;;;;7.68;6.70;;;;;;;19.69;55.06;98427.63;10397497;28;20095;-22
2021/12/17 20:14:58;;;;;;;10.83;6.57;;;;;;;19.70;54.98;98433.59;10402003;28;20040;-23
2021/12/17 20:19:59;;;;;;;7.83;6.47;;;;;;;19.75;54.81;98430.31;10403806;28;20037;-23
2021/12/17 20:25:00;;;;;;;8.85;7.20;;;;;;;19.74;54.99;98425.19;10408533;28;20287;-22
2021/12/17 20:30:04;;;;;;;11.20;6.60;;;;;;;19.74;54.90;98412.50;10406996;28;20870;-22
2021/12/17 20:35:06;;;;;;;9.20;6.50;;;;;;;19.64;53.48;98414.00;10405997;28;20551;-22
2021/12/17 20:40:09;;;;;;;8.38;6.53;;;;;;;19.68;54.63;98425.09;10406924;28;20033;-22
2021/12/17 20:45:13;;;;;;;8.20;6.22;;;;;;;19.73;53.88;98431.09;10404309;28;20064;-22
2021/12/17 20:50:13;;;;;;;9.82;6.47;;;;;;;19.68;54.31;98418.31;10399498;28;20045;-22
2021/12/17 20:55:15;;;;;;;8.32;6.82;;;;;;;19.72;54.62;98430.28;10404469;28;20049;-22
2021/12/17 21:00:25;;;;;;;10.77;7.13;;;;;;;19.72;54.91;98434.47;10405528;28;20108;-22
2021/12/17 21:05:27;;;;;;;8.05;6.45;;;;;;;19.69;54.65;98444.59;10401269;28;20048;-22
2021/12/17 21:10:28;;;;;;;7.65;5.57;;;;;;;19.64;54.93;98441.94;10406406;28;20648;-22
2021/12/17 21:15:29;;;;;;;9.15;5.70;;;;;;;19.66;54.78;98439.44;10401768;28;20035;-22
2021/12/17 21:20:32;;;;;;;8.25;6.30;;;;;;;19.64;54.96;98443.63;10403951;28;20045;-22
2021/12/17 21:25:33;;;;;;;7.70;6.03;;;;;;;19.61;54.94;98435.94;10405438;28;20116;-22
2021/12/17 21:30:33;;;;;;;10.20;7.00;;;;;;;19.68;55.08;98442.88;10402895;28;20399;-22
2021/12/17 21:35:35;;;;;;;7.55;6.15;;;;;;;19.74;54.80;98450.63;10397284;28;20144;-21
2021/12/17 21:40:39;;;;;;;6.93;5.55;;;;;;;19.69;54.89;98450.50;10396563;28;20411;-22
2021/12/17 21:45:40;;;;;;;10.88;6.05;;;;;;;19.69;55.07;98449.66;10394377;28;20476;-22
2021/12/17 21:50:40;;;;;;;8.18;6.40;;;;;;;19.70;54.90;98451.38;10393475;28;20164;-22
2021/12/17 21:55:41;;;;;;;6.37;5.77;;;;;;;19.67;55.16;98448.78;10395173;28;20038;-22
2021/12/17 22:00:41;;;;;;;6.82;5.10;;;;;;;19.66;55.43;98457.25;10396695;28;20033;-22
2021/12/17 22:05:42;;;;;;;6.82;5.47;;;;;;;19.65;55.29;98451.28;10394296;28;20517;-22
2021/12/17 22:10:42;;;;;;;6.75;5.60;;;;;;;19.62;55.10;98447.81;10395053;28;20084;-22
2021/12/17 22:15:43;;;;;;;7.80;5.67;;;;;;;19.66;55.35;98454.69;10394831;28;20025;-23
2021/12/17 22:20:51;;;;;;;7.68;5.65;;;;;;;19.67;55.30;98447.09;10395069;28;20161;-22
2021/12/17 22:25:54;;;;;;;8.93;5.43;;;;;;;19.61;55.20;98444.41;10397995;28;20124;-22
2021/12/17 22:30:55;;;;;;;7.28;5.65;;;;;;;19.66;54.91;98435.22;10400598;28;20039;-22
2021/12/17 22:35:56;;;;;;;6.95;5.38;;;;;;;19.67;55.30;98436.91;10403064;28;20040;-22
2021/12/17 22:46:16;;;;;;;7.25;5.72;;;;;;;19.65;55.45;98435.16;10400630;28;20095;-22
2021/12/17 22:51:19;;;;;;;8.63;5.30;;;;;;;19.63;55.23;98430.06;10404557;28;20039;-22
2021/12/17 22:56:20;;;;;;;6.32;4.88;;;;;;;19.65;55.08;98433.50;10402938;28;20033;-22
2021/12/17 23:01:30;;;;;;;6.25;5.13;;;;;;;19.66;55.00;98429.28;10400644;28;20033;-22
2021/12/17 23:06:40;;;;;;;7.32;4.97;;;;;;;19.66;55.06;98424.19;10399058;28;20087;-21
2021/12/17 23:11:45;;;;;;;6.25;5.03;;;;;;;19.65;55.37;98412.28;10404201;28;20060;-22
2021/12/17 23:16:46;;;;;;;6.75;4.97;;;;;;;19.67;55.00;98400.50;10400923;28;20029;-22
2021/12/17 23:21:47;;;;;;;6.13;5.53;;;;;;;19.68;55.07;98407.31;10404276;28;20524;-22
2021/12/17 23:26:48;;;;;;;7.60;4.97;;;;;;;19.66;55.06;98403.88;10398648;28;20065;-22
2021/12/17 23:31:49;;;;;;;7.70;4.57;;;;;;;19.64;55.15;98401.28;10402479;28;20029;-22
2021/12/17 23:36:49;;;;;;;6.95;5.38;;;;;;;19.69;54.84;98398.84;10402731;28;20504;-22
2021/12/17 23:41:50;;;;;;;7.15;4.80;;;;;;;19.70;55.01;98395.47;10407962;28;20079;-22
2021/12/17 23:46:50;;;;;;;6.63;4.40;;;;;;;19.66;54.75;98396.25;10401205;28;20407;-22
2021/12/17 23:51:51;;;;;;;6.00;4.53;;;;;;;19.67;54.78;98390.34;10402732;28;20021;-22
2021/12/17 23:56:54;;;;;;;5.45;4.72;;;;;;;19.73;54.86;98380.28;10407887;28;20129;-22
